createdAt,value
2017-11-10T00:00:12.226Z,64.95
2017-11-10T00:00:43.874Z,64.86
2017-11-10T00:01:15.518Z,64.90
2017-11-10T00:01:47.416Z,64.84
2017-11-10T00:02:19.082Z,64.88
2017-11-10T00:02:50.912Z,64.74
2017-11-10T00:03:22.563Z,64.75
2017-11-10T00:03:54.241Z,64.82
2017-11-10T00:04:25.890Z,64.75
2017-11-10T00:04:57.538Z,64.89
2017-11-10T00:05:29.181Z,64.86
2017-11-10T00:06:00.826Z,64.85
2017-11-10T00:06:32.470Z,64.95
2017-11-10T00:07:04.353Z,64.84
2017-11-10T00:07:36.118Z,64.78
2017-11-10T00:08:08.068Z,64.77
2017-11-10T00:08:39.717Z,64.75
2017-11-10T00:09:11.382Z,64.71
2017-11-10T00:09:43.301Z,64.73
2017-11-10T00:10:14.946Z,64.80
2017-11-10T00:10:46.598Z,64.77
2017-11-10T00:11:18.246Z,64.86
2017-11-10T00:11:49.913Z,64.89
2017-11-10T00:12:21.566Z,64.95
2017-11-10T00:12:53.214Z,64.86
2017-11-10T00:13:24.861Z,64.90
2017-11-10T00:13:56.593Z,64.89
2017-11-10T00:14:28.384Z,65.00
2017-11-10T00:15:00.038Z,65.29
2017-11-10T00:15:31.682Z,64.98
2017-11-10T00:16:03.325Z,65.14
2017-11-10T00:16:34.975Z,65.23
2017-11-10T00:17:06.618Z,65.25
2017-11-10T00:17:38.270Z,65.27
2017-11-10T00:18:09.915Z,65.26
2017-11-10T00:18:41.741Z,65.39
2017-11-10T00:19:13.440Z,65.42
2017-11-10T00:19:45.117Z,65.29
2017-11-10T00:20:16.761Z,65.35
2017-11-10T00:20:48.406Z,65.61
2017-11-10T00:21:20.051Z,65.38
2017-11-10T00:21:51.694Z,65.49
2017-11-10T00:22:23.337Z,65.49
2017-11-10T00:22:54.983Z,65.62
2017-11-10T00:23:26.638Z,65.67
2017-11-10T00:23:58.286Z,65.61
2017-11-10T00:24:30.202Z,65.87
2017-11-10T00:25:02.035Z,65.85
2017-11-10T00:25:33.787Z,66.00
2017-11-10T00:26:05.434Z,66.03
2017-11-10T00:26:37.134Z,65.95
2017-11-10T00:27:09.019Z,65.92
2017-11-10T00:27:40.890Z,65.86
2017-11-10T00:28:12.609Z,66.16
2017-11-10T00:28:44.558Z,66.18
2017-11-10T00:29:16.209Z,66.40
2017-11-10T00:29:47.856Z,66.44
2017-11-10T00:30:19.502Z,66.39
2017-11-10T00:30:51.381Z,66.44
2017-11-10T00:31:23.034Z,66.39
2017-11-10T00:31:54.714Z,66.30
2017-11-10T00:32:26.551Z,66.69
2017-11-10T00:32:58.309Z,66.68
2017-11-10T00:33:30.006Z,66.73
2017-11-10T00:34:01.655Z,66.90
2017-11-10T00:34:33.541Z,66.81
2017-11-10T00:35:05.418Z,66.80
2017-11-10T00:35:37.061Z,66.88
2017-11-10T00:36:08.705Z,66.90
2017-11-10T00:36:40.346Z,67.03
2017-11-10T00:37:11.996Z,66.91
2017-11-10T00:37:43.644Z,66.91
2017-11-10T00:38:15.343Z,67.13
2017-11-10T00:38:47.291Z,66.89
2017-11-10T00:39:18.942Z,67.20
2017-11-10T00:39:50.593Z,67.25
2017-11-10T00:40:22.238Z,67.18
2017-11-10T00:40:53.883Z,67.22
2017-11-10T00:41:25.527Z,67.27
2017-11-10T00:41:57.180Z,67.13
2017-11-10T00:42:28.835Z,67.23
2017-11-10T00:43:00.487Z,67.53
2017-11-10T00:43:32.182Z,67.38
2017-11-10T00:44:03.873Z,67.31
2017-11-10T00:44:35.518Z,67.45
2017-11-10T00:45:07.170Z,67.65
2017-11-10T00:45:38.943Z,67.86
2017-11-10T00:46:10.787Z,67.87
2017-11-10T00:46:42.534Z,67.57
2017-11-10T00:47:14.182Z,67.74
2017-11-10T00:47:45.887Z,67.61
2017-11-10T00:48:17.768Z,67.52
2017-11-10T00:48:49.603Z,67.75
2017-11-10T00:49:21.358Z,67.91
2017-11-10T00:49:53.010Z,67.75
2017-11-10T00:50:24.655Z,68.37
2017-11-10T00:50:56.323Z,68.14
2017-11-10T00:51:27.966Z,68.14
2017-11-10T00:51:59.615Z,68.12
2017-11-10T00:52:31.266Z,68.16
2017-11-10T00:53:03.158Z,68.41
2017-11-10T00:53:34.818Z,68.24
2017-11-10T00:54:06.465Z,68.26
2017-11-10T00:54:38.111Z,68.13
2017-11-10T00:55:09.758Z,68.13
2017-11-10T00:55:41.398Z,69.22
2017-11-10T00:56:13.046Z,68.65
2017-11-10T00:56:44.690Z,68.18
2017-11-10T00:57:16.334Z,68.43
2017-11-10T00:57:47.986Z,68.62
2017-11-10T00:58:19.834Z,68.25
2017-11-10T00:58:51.534Z,68.41
2017-11-10T00:59:23.182Z,68.38
2017-11-10T00:59:54.834Z,68.21
2017-11-10T01:00:26.496Z,68.21
2017-11-10T01:00:58.143Z,68.37
2017-11-10T01:01:29.795Z,68.50
2017-11-10T01:02:01.686Z,68.28
2017-11-10T01:02:33.337Z,68.29
2017-11-10T01:03:04.988Z,68.11
2017-11-10T01:03:36.634Z,68.18
2017-11-10T01:04:08.508Z,68.18
2017-11-10T01:04:40.158Z,68.08
2017-11-10T01:05:11.844Z,68.02
2017-11-10T01:05:43.498Z,68.12
2017-11-10T01:06:15.147Z,68.34
2017-11-10T01:06:46.796Z,68.14
2017-11-10T01:07:18.434Z,67.99
2017-11-10T01:07:50.082Z,67.84
2017-11-10T01:08:21.730Z,67.96
2017-11-10T01:08:53.374Z,68.01
2017-11-10T01:09:25.017Z,67.93
2017-11-10T01:09:56.667Z,67.92
2017-11-10T01:10:28.318Z,67.70
2017-11-10T01:10:59.962Z,67.89
2017-11-10T01:11:31.853Z,67.71
2017-11-10T01:12:03.503Z,68.00
2017-11-10T01:12:35.166Z,67.65
2017-11-10T01:13:06.810Z,67.72
2017-11-10T01:13:38.729Z,67.77
2017-11-10T01:14:10.377Z,67.97
2017-11-10T01:14:42.034Z,68.17
2017-11-10T01:15:13.683Z,68.03
2017-11-10T01:15:45.325Z,68.08
2017-11-10T01:16:16.965Z,68.05
2017-11-10T01:16:48.888Z,67.95
2017-11-10T01:17:20.537Z,67.94
2017-11-10T01:17:52.481Z,67.66
2017-11-10T01:18:24.139Z,67.80
2017-11-10T01:18:55.990Z,67.74
2017-11-10T01:19:27.634Z,67.71
2017-11-10T01:19:59.276Z,67.81
2017-11-10T01:20:30.918Z,67.85
2017-11-10T01:21:02.839Z,67.89
2017-11-10T01:21:34.586Z,67.80
2017-11-10T01:22:06.381Z,68.18
2017-11-10T01:22:38.030Z,67.88
2017-11-10T01:23:09.819Z,67.98
2017-11-10T01:23:41.651Z,67.87
2017-11-10T01:24:13.410Z,67.92
2017-11-10T01:24:45.358Z,67.86
2017-11-10T01:25:17.007Z,67.83
2017-11-10T01:25:48.657Z,67.80
2017-11-10T01:26:20.306Z,67.90
2017-11-10T01:26:51.954Z,68.32
2017-11-10T01:27:23.603Z,68.09
2017-11-10T01:27:55.245Z,68.03
2017-11-10T01:28:26.897Z,68.07
2017-11-10T01:28:58.610Z,68.06
2017-11-10T01:29:30.258Z,68.09
2017-11-10T01:30:01.901Z,68.48
2017-11-10T01:30:33.546Z,67.79
2017-11-10T01:31:05.189Z,67.76
2017-11-10T01:31:36.830Z,67.76
2017-11-10T01:32:08.469Z,67.77
2017-11-10T01:32:40.110Z,68.04
2017-11-10T01:33:11.753Z,67.84
2017-11-10T01:33:43.406Z,67.91
2017-11-10T01:34:15.274Z,67.70
2017-11-10T01:34:46.918Z,67.71
2017-11-10T01:35:18.811Z,67.87
2017-11-10T01:35:50.461Z,67.68
2017-11-10T01:36:22.101Z,67.78
2017-11-10T01:36:53.742Z,67.65
2017-11-10T01:37:25.386Z,67.64
2017-11-10T01:37:57.034Z,67.65
2017-11-10T01:38:28.681Z,67.87
2017-11-10T01:39:00.326Z,67.57
2017-11-10T01:39:32.254Z,67.59
2017-11-10T01:40:03.906Z,67.74
2017-11-10T01:40:35.553Z,67.65
2017-11-10T01:41:07.487Z,67.67
2017-11-10T01:41:39.348Z,67.69
2017-11-10T01:42:10.994Z,67.69
2017-11-10T01:42:42.671Z,67.69
2017-11-10T01:43:14.317Z,67.62
2017-11-10T01:43:46.004Z,67.53
2017-11-10T01:44:18.569Z,67.62
2017-11-10T01:44:50.217Z,67.66
2017-11-10T01:45:21.866Z,67.60
2017-11-10T01:45:53.515Z,67.65
2017-11-10T01:46:25.170Z,67.59
2017-11-10T01:46:56.821Z,67.69
2017-11-10T01:47:28.615Z,67.82
2017-11-10T01:48:00.286Z,67.65
2017-11-10T01:48:37.541Z,67.71
2017-11-10T01:49:09.190Z,67.66
2017-11-10T01:49:43.894Z,67.70
2017-11-10T01:50:15.844Z,67.60
2017-11-10T01:50:47.672Z,67.69
2017-11-10T01:51:19.433Z,67.61
2017-11-10T01:51:51.385Z,67.66
2017-11-10T01:52:23.218Z,67.54
2017-11-10T01:52:54.975Z,67.66
2017-11-10T01:53:26.924Z,67.61
2017-11-10T01:53:58.593Z,67.50
2017-11-10T01:54:30.266Z,67.50
2017-11-10T01:55:01.910Z,67.60
2017-11-10T01:55:33.558Z,67.63
2017-11-10T01:56:05.407Z,67.59
2017-11-10T01:56:37.126Z,67.47
2017-11-10T01:57:09.032Z,67.34
2017-11-10T01:57:40.697Z,67.42
2017-11-10T01:58:12.337Z,67.55
2017-11-10T01:58:43.991Z,67.54
2017-11-10T01:59:15.634Z,67.56
2017-11-10T01:59:47.547Z,67.51
2017-11-10T02:00:19.369Z,67.51
2017-11-10T02:00:51.061Z,67.57
2017-11-10T02:01:22.702Z,67.43
2017-11-10T02:01:54.353Z,67.49
2017-11-10T02:02:26.062Z,67.40
2017-11-10T02:02:57.742Z,67.52
2017-11-10T02:03:29.397Z,67.53
2017-11-10T02:04:01.298Z,67.35
2017-11-10T02:04:32.954Z,67.50
2017-11-10T02:05:04.603Z,67.53
2017-11-10T02:05:36.245Z,67.38
2017-11-10T02:06:07.898Z,67.55
2017-11-10T02:06:39.814Z,67.47
2017-11-10T02:07:11.699Z,67.52
2017-11-10T02:07:43.414Z,67.55
2017-11-10T02:08:15.166Z,67.70
2017-11-10T02:08:46.805Z,67.43
2017-11-10T02:09:18.445Z,67.56
2017-11-10T02:09:50.090Z,67.74
2017-11-10T02:10:21.922Z,67.74
2017-11-10T02:10:53.768Z,67.39
2017-11-10T02:11:25.514Z,67.79
2017-11-10T02:11:57.162Z,67.52
2017-11-10T02:12:28.805Z,67.67
2017-11-10T02:13:00.450Z,67.60
2017-11-10T02:13:32.094Z,67.75
2017-11-10T02:14:03.923Z,67.76
2017-11-10T02:14:35.672Z,67.72
2017-11-10T02:15:07.551Z,68.00
2017-11-10T02:15:39.267Z,67.82
2017-11-10T02:16:10.918Z,67.89
2017-11-10T02:16:42.566Z,67.83
2017-11-10T02:17:14.209Z,67.78
2017-11-10T02:17:45.854Z,67.88
2017-11-10T02:18:17.498Z,68.00
2017-11-10T02:18:49.147Z,67.64
2017-11-10T02:19:20.794Z,67.74
2017-11-10T02:19:52.438Z,67.87
2017-11-10T02:20:24.078Z,67.76
2017-11-10T02:20:55.721Z,67.87
2017-11-10T02:21:28.553Z,67.83
2017-11-10T02:22:00.209Z,67.91
2017-11-10T02:22:31.850Z,67.88
2017-11-10T02:23:03.495Z,67.81
2017-11-10T02:23:35.138Z,67.89
2017-11-10T02:24:06.786Z,67.84
2017-11-10T02:24:38.429Z,68.08
2017-11-10T02:25:10.071Z,67.91
2017-11-10T02:25:41.749Z,68.09
2017-11-10T02:26:13.445Z,68.10
2017-11-10T02:26:45.085Z,67.84
2017-11-10T02:27:16.731Z,68.11
2017-11-10T02:27:48.454Z,68.12
2017-11-10T02:28:20.204Z,67.99
2017-11-10T02:28:52.154Z,68.17
2017-11-10T02:29:23.802Z,68.12
2017-11-10T02:29:55.448Z,67.98
2017-11-10T02:30:27.094Z,67.98
2017-11-10T02:30:58.737Z,67.98
2017-11-10T02:31:30.579Z,67.93
2017-11-10T02:32:02.231Z,68.06
2017-11-10T02:32:33.876Z,68.25
2017-11-10T02:33:05.519Z,67.87
2017-11-10T02:33:37.162Z,67.91
2017-11-10T02:34:08.829Z,68.06
2017-11-10T02:34:40.519Z,68.43
2017-11-10T02:35:12.471Z,68.20
2017-11-10T02:35:44.167Z,68.10
2017-11-10T02:36:16.070Z,68.02
2017-11-10T02:36:47.721Z,68.23
2017-11-10T02:37:19.366Z,68.21
2017-11-10T02:37:51.018Z,68.01
2017-11-10T02:38:22.662Z,68.17
2017-11-10T02:38:54.301Z,68.33
2017-11-10T02:39:28.011Z,68.24
2017-11-10T02:39:59.705Z,68.19
2017-11-10T02:40:31.601Z,68.28
2017-11-10T02:41:03.600Z,68.43
2017-11-10T02:41:35.251Z,68.24
2017-11-10T02:42:07.107Z,68.22
2017-11-10T02:42:39.759Z,68.38
2017-11-10T02:43:11.446Z,68.47
2017-11-10T02:43:43.098Z,68.47
2017-11-10T02:44:14.741Z,68.49
2017-11-10T02:44:46.389Z,68.43
2017-11-10T02:45:18.058Z,68.45
2017-11-10T02:45:49.758Z,68.46
2017-11-10T02:46:21.405Z,68.50
2017-11-10T02:46:53.063Z,68.57
2017-11-10T02:47:24.843Z,68.56
2017-11-10T02:47:56.494Z,68.43
2017-11-10T02:48:28.139Z,68.55
2017-11-10T02:48:59.790Z,68.71
2017-11-10T02:49:31.433Z,68.68
2017-11-10T02:50:03.075Z,68.71
2017-11-10T02:50:34.722Z,68.82
2017-11-10T02:51:06.603Z,68.66
2017-11-10T02:51:38.286Z,68.76
2017-11-10T02:52:09.940Z,68.76
2017-11-10T02:52:41.590Z,68.85
2017-11-10T02:53:13.254Z,68.88
2017-11-10T02:53:44.898Z,68.97
2017-11-10T02:54:16.550Z,69.05
2017-11-10T02:54:48.444Z,68.98
2017-11-10T02:55:20.094Z,69.00
2017-11-10T02:55:51.742Z,68.98
2017-11-10T02:56:23.385Z,68.87
2017-11-10T02:56:55.027Z,69.11
2017-11-10T02:57:26.674Z,68.85
2017-11-10T02:57:58.317Z,69.08
2017-11-10T02:58:29.957Z,69.11
2017-11-10T02:59:01.886Z,69.15
2017-11-10T02:59:33.721Z,69.04
2017-11-10T03:00:05.411Z,69.08
2017-11-10T03:00:37.058Z,69.15
2017-11-10T03:01:08.702Z,69.01
2017-11-10T03:01:40.352Z,69.25
2017-11-10T03:02:12.041Z,69.16
2017-11-10T03:02:43.893Z,69.14
2017-11-10T03:03:15.635Z,69.45
2017-11-10T03:03:47.584Z,69.26
2017-11-10T03:04:19.283Z,69.79
2017-11-10T03:04:50.986Z,69.70
2017-11-10T03:05:22.630Z,69.56
2017-11-10T03:05:54.274Z,69.55
2017-11-10T03:06:26.101Z,69.54
2017-11-10T03:06:57.762Z,69.64
2017-11-10T03:07:29.411Z,69.58
2017-11-10T03:08:01.054Z,70.21
2017-11-10T03:08:32.698Z,69.79
2017-11-10T03:09:04.344Z,70.21
2017-11-10T03:09:35.986Z,70.03
2017-11-10T03:10:07.636Z,69.91
2017-11-10T03:10:39.544Z,69.98
2017-11-10T03:11:11.242Z,69.83
2017-11-10T03:11:42.890Z,70.29
2017-11-10T03:12:14.539Z,70.18
2017-11-10T03:12:46.186Z,69.93
2017-11-10T03:13:18.061Z,69.80
2017-11-10T03:13:50.014Z,69.76
2017-11-10T03:14:21.658Z,69.79
2017-11-10T03:14:53.334Z,69.78
2017-11-10T03:15:25.250Z,69.69
2017-11-10T03:15:56.926Z,69.67
2017-11-10T03:16:28.645Z,69.66
2017-11-10T03:17:00.300Z,69.40
2017-11-10T03:17:31.946Z,69.60
2017-11-10T03:18:03.590Z,69.15
2017-11-10T03:18:35.234Z,69.22
2017-11-10T03:19:06.874Z,69.35
2017-11-10T03:19:38.520Z,69.20
2017-11-10T03:20:10.165Z,69.19
2017-11-10T03:20:41.806Z,69.12
2017-11-10T03:21:13.446Z,69.06
2017-11-10T03:21:45.253Z,69.10
2017-11-10T03:22:17.084Z,69.06
2017-11-10T03:22:48.843Z,69.02
2017-11-10T03:23:20.676Z,69.12
2017-11-10T03:23:52.436Z,69.13
2017-11-10T03:24:24.384Z,69.27
2017-11-10T03:24:56.037Z,69.35
2017-11-10T03:25:27.690Z,69.08
2017-11-10T03:25:59.333Z,69.11
2017-11-10T03:26:31.217Z,69.11
2017-11-10T03:27:02.901Z,69.12
2017-11-10T03:27:34.851Z,69.05
2017-11-10T03:28:06.799Z,69.09
2017-11-10T03:28:38.747Z,69.16
2017-11-10T03:29:10.393Z,68.95
2017-11-10T03:29:42.042Z,69.10
2017-11-10T03:30:13.687Z,69.24
2017-11-10T03:30:45.335Z,69.22
2017-11-10T03:31:16.980Z,69.05
2017-11-10T03:31:48.681Z,69.19
2017-11-10T03:32:20.526Z,69.11
2017-11-10T03:32:52.214Z,69.05
2017-11-10T03:33:23.853Z,69.31
2017-11-10T03:33:55.494Z,69.04
2017-11-10T03:34:27.138Z,69.05
2017-11-10T03:34:58.782Z,69.10
2017-11-10T03:35:30.422Z,68.99
2017-11-10T03:36:02.070Z,69.14
2017-11-10T03:36:33.722Z,69.38
2017-11-10T03:37:05.374Z,67.82
2017-11-10T03:37:37.185Z,63.21
2017-11-10T03:38:09.164Z,60.46
2017-11-10T03:38:40.810Z,56.29
2017-11-10T03:39:12.452Z,55.02
2017-11-10T03:39:44.097Z,53.85
2017-11-10T03:40:15.791Z,51.49
2017-11-10T03:40:47.442Z,52.40
2017-11-10T03:41:19.381Z,50.71
2017-11-10T03:41:51.222Z,50.51
2017-11-10T03:42:22.973Z,49.88
2017-11-10T03:42:54.622Z,49.88
2017-11-10T03:43:26.262Z,52.19
2017-11-10T03:43:57.906Z,54.33
2017-11-10T03:44:29.545Z,57.42
2017-11-10T03:45:01.191Z,56.61
2017-11-10T03:45:32.839Z,56.83
2017-11-10T03:46:04.482Z,56.74
2017-11-10T03:46:36.416Z,56.74
2017-11-10T03:47:08.066Z,56.44
2017-11-10T03:47:39.763Z,56.70
2017-11-10T03:48:11.649Z,56.66
2017-11-10T03:48:43.293Z,56.27
2017-11-10T03:49:14.941Z,56.61
2017-11-10T03:49:46.591Z,57.07
2017-11-10T03:50:18.266Z,56.65
2017-11-10T03:50:49.915Z,57.01
2017-11-10T03:51:21.744Z,57.46
2017-11-10T03:51:53.395Z,57.76
2017-11-10T03:52:25.050Z,57.40
2017-11-10T03:52:56.748Z,57.76
2017-11-10T03:53:28.397Z,57.87
2017-11-10T03:54:00.286Z,57.88
2017-11-10T03:54:31.965Z,57.98
2017-11-10T03:55:03.859Z,58.33
2017-11-10T03:55:35.506Z,58.24
2017-11-10T03:56:07.149Z,58.49
2017-11-10T03:56:38.842Z,58.53
2017-11-10T03:57:10.490Z,58.71
2017-11-10T03:57:42.134Z,58.73
2017-11-10T03:58:13.786Z,58.80
2017-11-10T03:58:45.432Z,58.76
2017-11-10T03:59:17.079Z,58.42
2017-11-10T03:59:48.723Z,58.52
2017-11-10T04:00:20.367Z,58.70
2017-11-10T04:00:52.015Z,58.55
2017-11-10T04:01:23.655Z,58.64
2017-11-10T04:01:55.297Z,58.50
2017-11-10T04:02:26.946Z,58.58
2017-11-10T04:02:58.593Z,58.68
2017-11-10T04:03:30.486Z,58.61
2017-11-10T04:04:02.441Z,58.59
2017-11-10T04:04:34.390Z,58.60
2017-11-10T04:05:06.339Z,58.54
2017-11-10T04:05:37.981Z,58.63
2017-11-10T04:06:09.630Z,58.62
2017-11-10T04:06:41.274Z,58.63
2017-11-10T04:07:12.919Z,58.56
2017-11-10T04:07:44.570Z,58.70
2017-11-10T04:08:16.216Z,58.75
2017-11-10T04:08:48.140Z,58.78
2017-11-10T04:09:19.800Z,58.72
2017-11-10T04:09:51.450Z,58.75
2017-11-10T04:10:23.093Z,58.82
2017-11-10T04:10:54.734Z,58.85
2017-11-10T04:11:26.375Z,58.91
2017-11-10T04:11:58.013Z,58.99
2017-11-10T04:12:29.654Z,59.01
2017-11-10T04:13:01.293Z,59.10
2017-11-10T04:13:32.982Z,59.05
2017-11-10T04:14:04.869Z,59.04
2017-11-10T04:14:36.518Z,58.97
2017-11-10T04:15:08.376Z,59.02
2017-11-10T04:15:40.021Z,59.12
2017-11-10T04:16:11.666Z,59.17
2017-11-10T04:16:43.314Z,59.13
2017-11-10T04:17:14.959Z,59.14
2017-11-10T04:17:46.606Z,59.17
2017-11-10T04:18:18.255Z,59.34
2017-11-10T04:18:49.902Z,59.45
2017-11-10T04:19:21.546Z,59.50
2017-11-10T04:19:53.195Z,59.54
2017-11-10T04:20:24.849Z,59.45
2017-11-10T04:20:56.547Z,59.41
2017-11-10T04:21:28.527Z,59.40
2017-11-10T04:22:00.171Z,59.40
2017-11-10T04:22:32.004Z,59.42
2017-11-10T04:23:03.650Z,59.48
2017-11-10T04:23:35.299Z,59.45
2017-11-10T04:24:06.944Z,59.55
2017-11-10T04:24:38.599Z,59.60
2017-11-10T04:25:10.268Z,59.65
2017-11-10T04:25:41.917Z,59.66
2017-11-10T04:26:13.792Z,59.78
2017-11-10T04:26:45.443Z,59.83
2017-11-10T04:27:17.089Z,59.84
2017-11-10T04:27:48.739Z,59.92
2017-11-10T04:28:20.429Z,60.05
2017-11-10T04:28:52.138Z,60.20
2017-11-10T04:29:24.018Z,60.16
2017-11-10T04:29:55.665Z,60.26
2017-11-10T04:30:27.310Z,60.43
2017-11-10T04:30:58.953Z,60.53
2017-11-10T04:31:30.784Z,60.58
2017-11-10T04:32:02.478Z,60.69
2017-11-10T04:32:34.134Z,60.60
2017-11-10T04:33:05.821Z,60.65
2017-11-10T04:33:37.498Z,60.60
2017-11-10T04:34:09.142Z,60.65
2017-11-10T04:34:40.785Z,60.72
2017-11-10T04:35:12.425Z,60.68
2017-11-10T04:35:44.086Z,60.80
2017-11-10T04:36:15.800Z,60.80
2017-11-10T04:36:47.466Z,60.86
2017-11-10T04:37:19.115Z,60.96
2017-11-10T04:37:50.757Z,61.01
2017-11-10T04:38:22.551Z,61.00
2017-11-10T04:38:54.206Z,61.16
2017-11-10T04:39:25.858Z,61.28
2017-11-10T04:39:57.778Z,61.34
2017-11-10T04:40:29.426Z,61.44
2017-11-10T04:41:01.090Z,61.51
2017-11-10T04:41:32.733Z,61.51
2017-11-10T04:42:04.375Z,61.59
2017-11-10T04:42:36.027Z,61.67
2017-11-10T04:43:07.674Z,61.66
2017-11-10T04:43:39.327Z,61.66
2017-11-10T04:44:10.976Z,61.76
2017-11-10T04:44:42.861Z,61.68
2017-11-10T04:45:14.550Z,61.72
2017-11-10T04:45:46.452Z,61.74
2017-11-10T04:46:18.283Z,61.86
2017-11-10T04:46:50.043Z,61.93
2017-11-10T04:47:21.992Z,61.93
2017-11-10T04:47:53.941Z,61.97
2017-11-10T04:48:25.890Z,62.04
2017-11-10T04:48:57.840Z,62.05
2017-11-10T04:49:29.494Z,62.05
2017-11-10T04:50:01.142Z,62.13
2017-11-10T04:50:32.786Z,62.12
2017-11-10T04:51:04.431Z,62.20
2017-11-10T04:51:36.118Z,62.23
2017-11-10T04:52:07.943Z,62.29
2017-11-10T04:52:39.589Z,62.37
2017-11-10T04:53:11.282Z,62.31
2017-11-10T04:53:43.113Z,62.41
2017-11-10T04:54:14.873Z,62.48
2017-11-10T04:54:46.522Z,62.50
2017-11-10T04:55:18.171Z,62.58
2017-11-10T04:55:50.105Z,62.54
2017-11-10T04:56:22.055Z,62.58
2017-11-10T04:56:53.712Z,62.61
2017-11-10T04:57:25.357Z,62.62
2017-11-10T04:57:57.029Z,62.65
2017-11-10T04:58:28.682Z,62.64
2017-11-10T04:59:00.331Z,62.69
2017-11-10T04:59:32.171Z,62.75
2017-11-10T05:00:04.055Z,62.80
2017-11-10T05:00:35.804Z,62.82
2017-11-10T05:01:07.446Z,62.82
2017-11-10T05:01:39.396Z,62.77
2017-11-10T05:02:11.239Z,62.84
2017-11-10T05:02:42.988Z,62.80
2017-11-10T05:03:14.683Z,62.83
2017-11-10T05:03:46.533Z,62.84
2017-11-10T05:04:18.238Z,62.86
2017-11-10T05:04:49.881Z,62.88
2017-11-10T05:05:21.533Z,62.91
2017-11-10T05:05:53.452Z,62.87
2017-11-10T05:06:25.274Z,62.78
2017-11-10T05:06:57.044Z,62.79
2017-11-10T05:07:28.875Z,62.75
2017-11-10T05:08:00.636Z,62.75
2017-11-10T05:08:32.290Z,62.81
2017-11-10T05:09:03.935Z,62.82
2017-11-10T05:09:35.622Z,62.86
2017-11-10T05:10:07.282Z,62.85
2017-11-10T05:10:38.926Z,62.89
2017-11-10T05:11:10.794Z,62.84
2017-11-10T05:11:42.439Z,62.84
2017-11-10T05:12:14.099Z,62.81
2017-11-10T05:12:45.775Z,62.85
2017-11-10T05:13:17.418Z,62.87
2017-11-10T05:13:49.310Z,62.84
2017-11-10T05:14:20.963Z,62.81
2017-11-10T05:14:52.606Z,62.81
2017-11-10T05:15:24.251Z,62.81
2017-11-10T05:15:56.061Z,62.74
2017-11-10T05:16:27.829Z,62.70
2017-11-10T05:16:59.479Z,62.69
2017-11-10T05:17:31.130Z,62.67
2017-11-10T05:18:02.774Z,62.70
2017-11-10T05:18:34.668Z,62.65
2017-11-10T05:19:06.343Z,62.62
2017-11-10T05:19:37.994Z,62.57
2017-11-10T05:20:09.638Z,62.51
2017-11-10T05:20:41.284Z,62.46
2017-11-10T05:21:12.934Z,62.49
2017-11-10T05:21:44.573Z,62.46
2017-11-10T05:22:16.223Z,62.43
2017-11-10T05:22:47.867Z,62.43
2017-11-10T05:23:19.641Z,62.41
2017-11-10T05:23:51.334Z,62.40
2017-11-10T05:24:22.978Z,62.36
2017-11-10T05:24:54.622Z,62.39
2017-11-10T05:25:26.270Z,62.38
2017-11-10T05:25:57.913Z,62.38
2017-11-10T05:26:29.589Z,62.33
2017-11-10T05:27:01.278Z,62.26
2017-11-10T05:27:32.958Z,62.29
2017-11-10T05:28:04.812Z,62.24
2017-11-10T05:28:36.467Z,62.23
2017-11-10T05:29:08.157Z,62.20
2017-11-10T05:29:39.807Z,62.22
2017-11-10T05:30:11.657Z,62.19
2017-11-10T05:30:43.997Z,62.16
2017-11-10T05:31:15.678Z,62.14
2017-11-10T05:31:47.323Z,62.13
2017-11-10T05:32:18.977Z,62.17
2017-11-10T05:32:50.697Z,62.13
2017-11-10T05:33:22.523Z,62.11
2017-11-10T05:33:54.397Z,62.12
2017-11-10T05:34:26.110Z,62.15
2017-11-10T05:34:58.058Z,62.18
2017-11-10T05:35:29.743Z,62.19
2017-11-10T05:36:01.393Z,62.16
2017-11-10T05:36:33.262Z,62.20
2017-11-10T05:37:05.110Z,62.19
2017-11-10T05:37:36.882Z,62.19
2017-11-10T05:38:08.549Z,62.13
2017-11-10T05:38:40.473Z,62.12
2017-11-10T05:39:12.134Z,62.15
2017-11-10T05:39:43.811Z,62.15
2017-11-10T05:40:15.522Z,62.15
2017-11-10T05:40:47.186Z,62.16
2017-11-10T05:41:18.858Z,62.10
2017-11-10T05:41:50.632Z,62.10
2017-11-10T05:42:22.582Z,62.08
2017-11-10T05:42:54.260Z,62.08
2017-11-10T05:43:25.906Z,62.05
2017-11-10T05:43:57.554Z,62.00
2017-11-10T05:44:29.198Z,62.04
2017-11-10T05:45:00.940Z,62.03
2017-11-10T05:45:32.662Z,62.03
2017-11-10T05:46:04.330Z,62.03
2017-11-10T05:46:36.206Z,62.04
2017-11-10T05:47:07.972Z,62.06
2017-11-10T05:47:39.641Z,62.07
2017-11-10T05:48:11.286Z,62.06
2017-11-10T05:48:42.930Z,62.04
2017-11-10T05:49:14.569Z,62.01
2017-11-10T05:49:46.372Z,62.04
2017-11-10T05:50:18.057Z,62.07
2017-11-10T05:50:49.773Z,62.13
2017-11-10T05:51:21.446Z,62.09
2017-11-10T05:51:53.166Z,62.10
2017-11-10T05:52:24.855Z,62.06
2017-11-10T05:52:56.498Z,62.01
2017-11-10T05:53:28.141Z,61.95
2017-11-10T05:53:59.930Z,61.94
2017-11-10T05:54:31.607Z,61.95
2017-11-10T05:55:03.433Z,61.96
2017-11-10T05:55:35.114Z,61.95
2017-11-10T05:56:06.806Z,61.98
2017-11-10T05:56:38.489Z,61.94
2017-11-10T05:57:10.203Z,61.92
2017-11-10T05:57:42.038Z,61.93
2017-11-10T05:58:13.712Z,61.88
2017-11-10T05:58:45.414Z,61.87
2017-11-10T05:59:17.093Z,61.91
2017-11-10T05:59:48.763Z,61.87
2017-11-10T06:00:20.554Z,61.87
2017-11-10T06:00:52.207Z,61.87
2017-11-10T06:01:23.851Z,61.86
2017-11-10T06:01:55.493Z,61.89
2017-11-10T06:02:27.143Z,61.91
2017-11-10T06:02:58.786Z,61.92
2017-11-10T06:03:30.466Z,61.92
2017-11-10T06:04:02.332Z,61.92
2017-11-10T06:04:33.996Z,61.91
2017-11-10T06:05:05.804Z,61.91
2017-11-10T06:05:37.588Z,61.96
2017-11-10T06:06:09.426Z,61.94
2017-11-10T06:06:41.180Z,61.93
2017-11-10T06:07:12.831Z,61.92
2017-11-10T06:07:44.483Z,61.89
2017-11-10T06:08:16.173Z,61.87
2017-11-10T06:08:48.056Z,61.93
2017-11-10T06:09:20.003Z,61.91
2017-11-10T06:09:51.655Z,61.89
2017-11-10T06:10:23.302Z,61.94
2017-11-10T06:10:54.948Z,61.94
2017-11-10T06:11:26.591Z,61.92
2017-11-10T06:11:58.242Z,61.86
2017-11-10T06:12:29.889Z,61.88
2017-11-10T06:13:01.533Z,61.83
2017-11-10T06:13:33.177Z,61.84
2017-11-10T06:14:04.827Z,61.83
2017-11-10T06:14:36.730Z,61.82
2017-11-10T06:15:08.624Z,61.87
2017-11-10T06:15:40.269Z,61.86
2017-11-10T06:16:11.964Z,61.85
2017-11-10T06:16:43.614Z,61.76
2017-11-10T06:17:15.279Z,61.75
2017-11-10T06:17:46.926Z,61.77
2017-11-10T06:18:18.570Z,61.77
2017-11-10T06:18:50.210Z,61.73
2017-11-10T06:19:21.852Z,61.76
2017-11-10T06:19:53.763Z,61.70
2017-11-10T06:20:25.683Z,61.69
2017-11-10T06:20:57.351Z,61.70
2017-11-10T06:21:29.041Z,61.75
2017-11-10T06:22:00.685Z,61.82
2017-11-10T06:22:32.330Z,61.79
2017-11-10T06:23:03.978Z,61.80
2017-11-10T06:23:35.626Z,61.80
2017-11-10T06:24:07.513Z,61.80
2017-11-10T06:24:39.164Z,61.78
2017-11-10T06:25:11.070Z,61.76
2017-11-10T06:25:42.745Z,61.80
2017-11-10T06:26:14.395Z,61.75
2017-11-10T06:26:46.087Z,61.73
2017-11-10T06:27:17.936Z,61.79
2017-11-10T06:27:49.617Z,61.81
2017-11-10T06:28:21.570Z,61.84
2017-11-10T06:28:53.520Z,61.83
2017-11-10T06:29:25.359Z,61.82
2017-11-10T06:29:57.110Z,61.84
2017-11-10T06:30:28.956Z,61.85
2017-11-10T06:31:00.608Z,61.85
2017-11-10T06:31:32.301Z,61.84
2017-11-10T06:32:03.983Z,61.84
2017-11-10T06:32:35.850Z,61.86
2017-11-10T06:33:07.498Z,61.84
2017-11-10T06:33:39.414Z,61.83
2017-11-10T06:34:11.166Z,61.87
2017-11-10T06:34:42.991Z,61.88
2017-11-10T06:35:14.757Z,61.92
2017-11-10T06:35:46.706Z,61.91
2017-11-10T06:36:18.656Z,61.88
2017-11-10T06:36:50.311Z,61.87
2017-11-10T06:37:21.970Z,61.91
2017-11-10T06:37:53.613Z,61.91
2017-11-10T06:38:25.253Z,61.85
2017-11-10T06:38:56.894Z,61.90
2017-11-10T06:39:28.815Z,61.85
2017-11-10T06:40:00.514Z,61.87
2017-11-10T06:40:32.157Z,61.87
2017-11-10T06:41:03.807Z,61.89
2017-11-10T06:41:35.578Z,61.90
2017-11-10T06:42:07.337Z,61.90
2017-11-10T06:42:38.994Z,61.90
2017-11-10T06:43:10.639Z,61.87
2017-11-10T06:43:42.286Z,61.90
2017-11-10T06:44:13.926Z,61.92
2017-11-10T06:44:45.848Z,61.92
2017-11-10T06:45:17.498Z,61.93
2017-11-10T06:45:49.142Z,61.91
2017-11-10T06:46:20.795Z,61.93
2017-11-10T06:46:52.441Z,61.93
2017-11-10T06:47:24.367Z,61.98
2017-11-10T06:47:56.316Z,61.93
2017-11-10T06:48:27.962Z,61.93